sensor_id;sensor_type;location;lat;lon;timestamp;temperature;humidity
75994;DHT22;64680;53.800;9.988;2023-08-20T00:00:32;17.10;99.90
75994;DHT22;64680;53.800;9.988;2023-08-20T00:03:11;17.00;99.90
75994;DHT22;64680;53.800;9.988;2023-08-20T00:05:37;17.00;99.90
75994;DHT22;64680;53.800;9.988;2023-08-20T00:08:03;17.00;99.90
75994;DHT22;64680;53.800;9.988;2023-08-20T00:10:30;17.00;99.90
75994;DHT22;64680;53.800;9.988;2023-08-20T00:12:56;16.90;99.90
75994;DHT22;64680;53.800;9.988;2023-08-20T00:15:21;17.00;99.90
75994;DHT22;64680;53.800;9.988;2023-08-20T00:17:52;16.90;99.90
75994;DHT22;64680;53.800;9.988;2023-08-20T00:20:18;16.90;99.90
75994;DHT22;64680;53.800;9.988;2023-08-20T00:22:45;16.90;99.90
75994;DHT22;64680;53.800;9.988;2023-08-20T00:25:12;16.90;99.90
75994;DHT22;64680;53.800;9.988;2023-08-20T00:27:42;16.80;99.90
75994;DHT22;64680;53.800;9.988;2023-08-20T00:30:08;16.80;99.90
75994;DHT22;64680;53.800;9.988;2023-08-20T00:32:34;16.80;99.90
75994;DHT22;64680;53.800;9.988;2023-08-20T00:35:00;16.80;99.90
75994;DHT22;64680;53.800;9.988;2023-08-20T00:37:26;16.70;99.90
75994;DHT22;64680;53.800;9.988;2023-08-20T00:39:52;16.70;99.90
75994;DHT22;64680;53.800;9.988;2023-08-20T00:42:17;16.70;99.90
75994;DHT22;64680;53.800;9.988;2023-08-20T00:44:43;16.60;99.90
75994;DHT22;64680;53.800;9.988;2023-08-20T00:47:13;16.60;99.90
75994;DHT22;64680;53.800;9.988;2023-08-20T00:49:39;16.50;99.90
75994;DHT22;64680;53.800;9.988;2023-08-20T00:52:07;16.40;99.90
75994;DHT22;64680;53.800;9.988;2023-08-20T00:54:33;16.40;99.90
75994;DHT22;64680;53.800;9.988;2023-08-20T00:56:59;16.30;99.90
75994;DHT22;64680;53.800;9.988;2023-08-20T00:59:26;16.30;99.90
75994;DHT22;64680;53.800;9.988;2023-08-20T01:01:53;16.20;99.90
75994;DHT22;64680;53.800;9.988;2023-08-20T01:04:18;16.20;99.90
75994;DHT22;64680;53.800;9.988;2023-08-20T01:10:08;16.10;99.90
75994;DHT22;64680;53.800;9.988;2023-08-20T01:12:34;16.10;99.90
75994;DHT22;64680;53.800;9.988;2023-08-20T01:15:01;16.00;99.90
75994;DHT22;64680;53.800;9.988;2023-08-20T01:17:26;15.90;99.90
75994;DHT22;64680;53.800;9.988;2023-08-20T01:19:52;15.90;99.90
75994;DHT22;64680;53.800;9.988;2023-08-20T01:23:34;15.70;99.90
75994;DHT22;64680;53.800;9.988;2023-08-20T01:25:49;15.70;99.90
75994;DHT22;64680;53.800;9.988;2023-08-20T01:28:32;15.50;99.90
75994;DHT22;64680;53.800;9.988;2023-08-20T01:31:01;15.50;99.90
75994;DHT22;64680;53.800;9.988;2023-08-20T01:33:27;15.40;99.90
75994;DHT22;64680;53.800;9.988;2023-08-20T01:35:54;15.40;99.90
75994;DHT22;64680;53.800;9.988;2023-08-20T01:38:20;15.30;99.90
75994;DHT22;64680;53.800;9.988;2023-08-20T01:40:47;15.30;99.90
75994;DHT22;64680;53.800;9.988;2023-08-20T01:43:12;15.20;99.90
75994;DHT22;64680;53.800;9.988;2023-08-20T01:45:38;15.20;99.90
75994;DHT22;64680;53.800;9.988;2023-08-20T01:48:04;15.20;99.90
75994;DHT22;64680;53.800;9.988;2023-08-20T01:50:30;15.20;99.90
75994;DHT22;64680;53.800;9.988;2023-08-20T01:52:55;15.10;99.90
75994;DHT22;64680;53.800;9.988;2023-08-20T01:55:21;15.20;99.90
75994;DHT22;64680;53.800;9.988;2023-08-20T01:57:47;15.20;99.90
75994;DHT22;64680;53.800;9.988;2023-08-20T02:00:13;15.20;99.90
75994;DHT22;64680;53.800;9.988;2023-08-20T02:02:38;15.20;99.90
75994;DHT22;64680;53.800;9.988;2023-08-20T02:05:04;15.10;99.90
75994;DHT22;64680;53.800;9.988;2023-08-20T02:07:30;15.20;99.90
75994;DHT22;64680;53.800;9.988;2023-08-20T02:09:55;15.10;99.90
75994;DHT22;64680;53.800;9.988;2023-08-20T02:12:21;15.00;99.90
75994;DHT22;64680;53.800;9.988;2023-08-20T02:14:47;14.90;99.90
75994;DHT22;64680;53.800;9.988;2023-08-20T02:17:12;14.90;99.90
75994;DHT22;64680;53.800;9.988;2023-08-20T02:19:38;14.90;99.90
75994;DHT22;64680;53.800;9.988;2023-08-20T02:22:04;14.80;99.90
75994;DHT22;64680;53.800;9.988;2023-08-20T02:24:30;14.80;99.90
75994;DHT22;64680;53.800;9.988;2023-08-20T02:26:56;14.80;99.90
75994;DHT22;64680;53.800;9.988;2023-08-20T02:29:21;14.90;99.90
75994;DHT22;64680;53.800;9.988;2023-08-20T02:31:47;14.90;99.90
75994;DHT22;64680;53.800;9.988;2023-08-20T02:34:12;15.00;99.90
75994;DHT22;64680;53.800;9.988;2023-08-20T02:36:38;15.00;99.90
75994;DHT22;64680;53.800;9.988;2023-08-20T02:39:03;15.00;99.90
75994;DHT22;64680;53.800;9.988;2023-08-20T02:41:35;15.00;99.90
75994;DHT22;64680;53.800;9.988;2023-08-20T02:44:02;15.00;99.90
75994;DHT22;64680;53.800;9.988;2023-08-20T02:46:27;15.00;99.90
75994;DHT22;64680;53.800;9.988;2023-08-20T02:48:55;15.00;99.90
75994;DHT22;64680;53.800;9.988;2023-08-20T02:51:21;15.00;99.90
75994;DHT22;64680;53.800;9.988;2023-08-20T02:53:47;15.00;99.90
75994;DHT22;64680;53.800;9.988;2023-08-20T02:56:12;15.00;99.90
75994;DHT22;64680;53.800;9.988;2023-08-20T02:58:38;15.00;99.90
75994;DHT22;64680;53.800;9.988;2023-08-20T03:01:03;15.10;99.90
75994;DHT22;64680;53.800;9.988;2023-08-20T03:03:29;15.10;99.90
75994;DHT22;64680;53.800;9.988;2023-08-20T03:05:55;15.10;99.90
75994;DHT22;64680;53.800;9.988;2023-08-20T03:08:20;15.10;99.90
75994;DHT22;64680;53.800;9.988;2023-08-20T03:10:46;15.20;99.90
75994;DHT22;64680;53.800;9.988;2023-08-20T03:13:11;15.20;99.90
75994;DHT22;64680;53.800;9.988;2023-08-20T03:15:37;15.20;99.90
75994;DHT22;64680;53.800;9.988;2023-08-20T03:18:03;15.20;99.90
75994;DHT22;64680;53.800;9.988;2023-08-20T03:20:29;15.10;99.90
75994;DHT22;64680;53.800;9.988;2023-08-20T03:22:56;15.10;99.90
75994;DHT22;64680;53.800;9.988;2023-08-20T03:25:22;15.10;99.90
75994;DHT22;64680;53.800;9.988;2023-08-20T03:27:49;15.20;99.90
75994;DHT22;64680;53.800;9.988;2023-08-20T03:30:14;15.20;99.90
75994;DHT22;64680;53.800;9.988;2023-08-20T03:32:40;15.20;99.90
75994;DHT22;64680;53.800;9.988;2023-08-20T03:35:06;15.20;99.90
75994;DHT22;64680;53.800;9.988;2023-08-20T03:37:31;15.20;99.90
75994;DHT22;64680;53.800;9.988;2023-08-20T03:39:57;15.20;99.90
75994;DHT22;64680;53.800;9.988;2023-08-20T03:42:22;15.20;99.90
75994;DHT22;64680;53.800;9.988;2023-08-20T03:44:48;15.20;99.90
75994;DHT22;64680;53.800;9.988;2023-08-20T03:47:14;15.30;99.90
75994;DHT22;64680;53.800;9.988;2023-08-20T03:49:40;15.20;99.90
75994;DHT22;64680;53.800;9.988;2023-08-20T03:52:06;15.20;99.90
75994;DHT22;64680;53.800;9.988;2023-08-20T03:54:33;15.20;99.90
75994;DHT22;64680;53.800;9.988;2023-08-20T03:56:58;15.20;99.90
75994;DHT22;64680;53.800;9.988;2023-08-20T03:59:24;15.20;99.90
75994;DHT22;64680;53.800;9.988;2023-08-20T04:01:50;15.20;99.90
75994;DHT22;64680;53.800;9.988;2023-08-20T04:04:15;15.20;99.90
75994;DHT22;64680;53.800;9.988;2023-08-20T04:06:41;15.10;99.90
75994;DHT22;64680;53.800;9.988;2023-08-20T04:09:06;15.10;99.90
75994;DHT22;64680;53.800;9.988;2023-08-20T04:11:34;15.10;99.90
75994;DHT22;64680;53.800;9.988;2023-08-20T04:13:59;15.10;99.90
75994;DHT22;64680;53.800;9.988;2023-08-20T04:16:25;15.10;99.90
75994;DHT22;64680;53.800;9.988;2023-08-20T04:18:51;15.10;99.90
75994;DHT22;64680;53.800;9.988;2023-08-20T04:21:16;15.00;99.90
75994;DHT22;64680;53.800;9.988;2023-08-20T04:23:42;15.00;99.90
75994;DHT22;64680;53.800;9.988;2023-08-20T04:26:07;15.00;99.90
75994;DHT22;64680;53.800;9.988;2023-08-20T04:28:33;15.00;99.90
75994;DHT22;64680;53.800;9.988;2023-08-20T04:30:59;15.10;99.90
75994;DHT22;64680;53.800;9.988;2023-08-20T04:33:26;15.10;99.90
75994;DHT22;64680;53.800;9.988;2023-08-20T04:35:52;15.10;99.90
75994;DHT22;64680;53.800;9.988;2023-08-20T04:38:18;15.10;99.90
75994;DHT22;64680;53.800;9.988;2023-08-20T04:40:47;15.20;99.90
75994;DHT22;64680;53.800;9.988;2023-08-20T04:43:15;15.20;99.90
75994;DHT22;64680;53.800;9.988;2023-08-20T04:45:41;15.20;99.90
75994;DHT22;64680;53.800;9.988;2023-08-20T04:48:07;15.20;99.90
75994;DHT22;64680;53.800;9.988;2023-08-20T04:50:33;15.30;99.90
75994;DHT22;64680;53.800;9.988;2023-08-20T04:52:59;15.30;99.90
75994;DHT22;64680;53.800;9.988;2023-08-20T04:55:26;15.30;99.90
75994;DHT22;64680;53.800;9.988;2023-08-20T04:57:51;15.40;99.90
75994;DHT22;64680;53.800;9.988;2023-08-20T05:00:17;15.40;99.90
75994;DHT22;64680;53.800;9.988;2023-08-20T05:02:43;15.40;99.90
75994;DHT22;64680;53.800;9.988;2023-08-20T05:05:09;15.40;99.90
75994;DHT22;64680;53.800;9.988;2023-08-20T05:07:35;15.40;99.90
75994;DHT22;64680;53.800;9.988;2023-08-20T05:10:01;15.50;99.90
75994;DHT22;64680;53.800;9.988;2023-08-20T05:12:28;15.50;99.90
75994;DHT22;64680;53.800;9.988;2023-08-20T05:14:53;15.50;99.90
75994;DHT22;64680;53.800;9.988;2023-08-20T05:17:19;15.50;99.90
75994;DHT22;64680;53.800;9.988;2023-08-20T05:19:45;15.50;99.90
75994;DHT22;64680;53.800;9.988;2023-08-20T05:22:11;15.60;99.90
75994;DHT22;64680;53.800;9.988;2023-08-20T05:24:37;15.60;99.90
75994;DHT22;64680;53.800;9.988;2023-08-20T05:27:13;15.70;99.90
75994;DHT22;64680;53.800;9.988;2023-08-20T05:29:45;15.80;99.90
75994;DHT22;64680;53.800;9.988;2023-08-20T05:32:11;15.90;99.90
75994;DHT22;64680;53.800;9.988;2023-08-20T05:34:39;15.90;99.90
75994;DHT22;64680;53.800;9.988;2023-08-20T05:37:05;16.00;99.90
75994;DHT22;64680;53.800;9.988;2023-08-20T05:39:35;16.10;99.90
75994;DHT22;64680;53.800;9.988;2023-08-20T05:42:04;16.10;99.90
75994;DHT22;64680;53.800;9.988;2023-08-20T05:44:30;16.20;99.90
75994;DHT22;64680;53.800;9.988;2023-08-20T05:46:56;16.30;99.90
75994;DHT22;64680;53.800;9.988;2023-08-20T05:49:21;16.40;99.90
75994;DHT22;64680;53.800;9.988;2023-08-20T05:51:47;16.40;99.90
75994;DHT22;64680;53.800;9.988;2023-08-20T05:54:13;16.40;99.90
75994;DHT22;64680;53.800;9.988;2023-08-20T05:56:38;16.50;99.90
75994;DHT22;64680;53.800;9.988;2023-08-20T05:59:04;16.70;99.90
75994;DHT22;64680;53.800;9.988;2023-08-20T06:01:29;16.70;99.90
75994;DHT22;64680;53.800;9.988;2023-08-20T06:03:55;16.70;99.90
75994;DHT22;64680;53.800;9.988;2023-08-20T06:06:21;16.80;99.90
75994;DHT22;64680;53.800;9.988;2023-08-20T06:08:47;16.80;99.90
75994;DHT22;64680;53.800;9.988;2023-08-20T06:11:13;16.80;99.90
75994;DHT22;64680;53.800;9.988;2023-08-20T06:13:38;17.00;99.90
75994;DHT22;64680;53.800;9.988;2023-08-20T06:16:04;17.00;99.90
75994;DHT22;64680;53.800;9.988;2023-08-20T06:18:30;17.00;99.90
75994;DHT22;64680;53.800;9.988;2023-08-20T06:20:56;17.10;99.90
75994;DHT22;64680;53.800;9.988;2023-08-20T06:23:21;17.20;99.90
75994;DHT22;64680;53.800;9.988;2023-08-20T06:25:47;17.30;99.90
75994;DHT22;64680;53.800;9.988;2023-08-20T06:28:13;17.40;99.90
75994;DHT22;64680;53.800;9.988;2023-08-20T06:30:38;17.40;99.90
75994;DHT22;64680;53.800;9.988;2023-08-20T06:33:04;17.40;99.90
75994;DHT22;64680;53.800;9.988;2023-08-20T06:35:29;17.70;99.90
75994;DHT22;64680;53.800;9.988;2023-08-20T06:37:55;18.10;99.90
75994;DHT22;64680;53.800;9.988;2023-08-20T06:40:20;18.30;99.90
75994;DHT22;64680;53.800;9.988;2023-08-20T06:42:46;18.60;99.90
75994;DHT22;64680;53.800;9.988;2023-08-20T06:45:12;18.90;93.50
75994;DHT22;64680;53.800;9.988;2023-08-20T06:47:37;19.20;93.00
75994;DHT22;64680;53.800;9.988;2023-08-20T06:50:03;19.50;90.20
75994;DHT22;64680;53.800;9.988;2023-08-20T06:52:29;19.80;86.10
75994;DHT22;64680;53.800;9.988;2023-08-20T06:54:55;20.00;76.50
75994;DHT22;64680;53.800;9.988;2023-08-20T06:57:20;20.10;76.40
75994;DHT22;64680;53.800;9.988;2023-08-20T06:59:46;20.10;77.90
75994;DHT22;64680;53.800;9.988;2023-08-20T07:02:11;20.30;74.50
75994;DHT22;64680;53.800;9.988;2023-08-20T07:04:37;20.40;76.60
75994;DHT22;64680;53.800;9.988;2023-08-20T07:07:03;20.50;69.20
75994;DHT22;64680;53.800;9.988;2023-08-20T07:09:30;20.50;66.90
75994;DHT22;64680;53.800;9.988;2023-08-20T07:11:56;20.50;67.60
75994;DHT22;64680;53.800;9.988;2023-08-20T07:14:21;20.50;64.30
75994;DHT22;64680;53.800;9.988;2023-08-20T07:16:47;20.40;69.20
75994;DHT22;64680;53.800;9.988;2023-08-20T07:19:13;20.50;68.40
75994;DHT22;64680;53.800;9.988;2023-08-20T07:21:38;20.40;68.20
75994;DHT22;64680;53.800;9.988;2023-08-20T07:24:04;20.40;70.40
75994;DHT22;64680;53.800;9.988;2023-08-20T07:26:29;20.60;68.80
75994;DHT22;64680;53.800;9.988;2023-08-20T07:28:55;20.70;65.60
75994;DHT22;64680;53.800;9.988;2023-08-20T07:31:29;20.90;59.40
75994;DHT22;64680;53.800;9.988;2023-08-20T07:33:56;20.90;56.00
75994;DHT22;64680;53.800;9.988;2023-08-20T07:36:23;20.80;59.60
75994;DHT22;64680;53.800;9.988;2023-08-20T07:38:53;21.00;57.90
75994;DHT22;64680;53.800;9.988;2023-08-20T07:41:22;21.20;53.80
75994;DHT22;64680;53.800;9.988;2023-08-20T07:43:48;21.30;53.70
75994;DHT22;64680;53.800;9.988;2023-08-20T07:46:14;21.30;52.30
75994;DHT22;64680;53.800;9.988;2023-08-20T07:48:40;21.40;52.80
75994;DHT22;64680;53.800;9.988;2023-08-20T07:51:06;21.50;52.60
75994;DHT22;64680;53.800;9.988;2023-08-20T07:53:33;21.40;52.70
75994;DHT22;64680;53.800;9.988;2023-08-20T07:56:02;21.50;48.60
75994;DHT22;64680;53.800;9.988;2023-08-20T07:58:28;21.60;45.30
75994;DHT22;64680;53.800;9.988;2023-08-20T08:00:54;21.70;45.50
75994;DHT22;64680;53.800;9.988;2023-08-20T08:03:20;21.50;46.10
75994;DHT22;64680;53.800;9.988;2023-08-20T08:05:47;21.60;46.90
75994;DHT22;64680;53.800;9.988;2023-08-20T08:08:13;21.60;47.00
75994;DHT22;64680;53.800;9.988;2023-08-20T08:10:39;21.50;47.00
75994;DHT22;64680;53.800;9.988;2023-08-20T08:13:04;21.20;47.50
75994;DHT22;64680;53.800;9.988;2023-08-20T08:15:30;21.00;50.30
75994;DHT22;64680;53.800;9.988;2023-08-20T08:17:56;21.10;49.90
75994;DHT22;64680;53.800;9.988;2023-08-20T08:20:21;21.40;53.80
75994;DHT22;64680;53.800;9.988;2023-08-20T08:22:47;21.40;43.80
75994;DHT22;64680;53.800;9.988;2023-08-20T08:25:13;21.30;47.80
75994;DHT22;64680;53.800;9.988;2023-08-20T08:27:39;21.60;51.60
75994;DHT22;64680;53.800;9.988;2023-08-20T08:30:05;21.60;43.50
75994;DHT22;64680;53.800;9.988;2023-08-20T08:32:30;21.80;43.30
75994;DHT22;64680;53.800;9.988;2023-08-20T08:34:56;21.80;38.90
75994;DHT22;64680;53.800;9.988;2023-08-20T08:37:22;21.50;42.90
75994;DHT22;64680;53.800;9.988;2023-08-20T08:39:47;21.40;39.80
75994;DHT22;64680;53.800;9.988;2023-08-20T08:42:14;21.70;37.40
75994;DHT22;64680;53.800;9.988;2023-08-20T08:44:40;22.10;33.20
75994;DHT22;64680;53.800;9.988;2023-08-20T08:47:07;22.30;34.60
75994;DHT22;64680;53.800;9.988;2023-08-20T08:49:36;22.50;30.80
75994;DHT22;64680;53.800;9.988;2023-08-20T08:52:03;22.60;31.30
75994;DHT22;64680;53.800;9.988;2023-08-20T08:54:30;22.80;23.60
75994;DHT22;64680;53.800;9.988;2023-08-20T08:56:57;22.90;21.20
75994;DHT22;64680;53.800;9.988;2023-08-20T08:59:23;22.70;21.40
75994;DHT22;64680;53.800;9.988;2023-08-20T09:01:49;23.00;19.80
75994;DHT22;64680;53.800;9.988;2023-08-20T09:04:14;23.20;19.90
75994;DHT22;64680;53.800;9.988;2023-08-20T09:06:51;23.10;16.90
75994;DHT22;64680;53.800;9.988;2023-08-20T09:09:18;23.10;19.30
75994;DHT22;64680;53.800;9.988;2023-08-20T09:11:44;23.20;14.90
75994;DHT22;64680;53.800;9.988;2023-08-20T09:14:24;23.30;16.90
75994;DHT22;64680;53.800;9.988;2023-08-20T09:17:00;23.10;14.20
75994;DHT22;64680;53.800;9.988;2023-08-20T09:19:30;23.10;18.90
75994;DHT22;64680;53.800;9.988;2023-08-20T09:21:58;23.50;14.40
75994;DHT22;64680;53.800;9.988;2023-08-20T09:24:41;23.70;18.30
75994;DHT22;64680;53.800;9.988;2023-08-20T09:27:11;23.70;11.50
75994;DHT22;64680;53.800;9.988;2023-08-20T09:29:46;23.80;12.20
75994;DHT22;64680;53.800;9.988;2023-08-20T09:32:26;23.70;11.40
75994;DHT22;64680;53.800;9.988;2023-08-20T09:34:54;23.50;10.90
75994;DHT22;64680;53.800;9.988;2023-08-20T09:37:21;23.50;15.60
75994;DHT22;64680;53.800;9.988;2023-08-20T09:39:47;23.90;12.10
75994;DHT22;64680;53.800;9.988;2023-08-20T09:42:13;24.10;11.90
75994;DHT22;64680;53.800;9.988;2023-08-20T09:44:41;24.20;5.30
75994;DHT22;64680;53.800;9.988;2023-08-20T09:47:09;24.30;4.00
75994;DHT22;64680;53.800;9.988;2023-08-20T09:49:43;24.30;1.00
75994;DHT22;64680;53.800;9.988;2023-08-20T09:52:11;24.50;5.40
75994;DHT22;64680;53.800;9.988;2023-08-20T09:54:55;23.80;1.00
75994;DHT22;64680;53.800;9.988;2023-08-20T09:57:35;23.70;2.40
75994;DHT22;64680;53.800;9.988;2023-08-20T10:00:02;23.90;6.90
75994;DHT22;64680;53.800;9.988;2023-08-20T10:02:31;24.20;1.70
75994;DHT22;64680;53.800;9.988;2023-08-20T10:04:58;24.20;2.30
75994;DHT22;64680;53.800;9.988;2023-08-20T10:07:28;24.40;1.50
75994;DHT22;64680;53.800;9.988;2023-08-20T10:09:56;24.60;1.00
75994;DHT22;64680;53.800;9.988;2023-08-20T10:12:28;24.70;1.00
75994;DHT22;64680;53.800;9.988;2023-08-20T10:14:59;24.40;1.00
75994;DHT22;64680;53.800;9.988;2023-08-20T10:17:25;24.50;1.00
75994;DHT22;64680;53.800;9.988;2023-08-20T10:19:52;24.50;1.00
75994;DHT22;64680;53.800;9.988;2023-08-20T10:22:19;24.50;1.00
75994;DHT22;64680;53.800;9.988;2023-08-20T10:24:52;24.40;1.00
75994;DHT22;64680;53.800;9.988;2023-08-20T10:27:25;24.40;1.00
75994;DHT22;64680;53.800;9.988;2023-08-20T10:29:56;24.60;1.00
75994;DHT22;64680;53.800;9.988;2023-08-20T10:32:48;24.80;1.00
75994;DHT22;64680;53.800;9.988;2023-08-20T10:38:14;24.70;1.00
75994;DHT22;64680;53.800;9.988;2023-08-20T10:40:56;24.60;1.00
75994;DHT22;64680;53.800;9.988;2023-08-20T10:46:16;24.80;1.00
75994;DHT22;64680;53.800;9.988;2023-08-20T10:48:43;24.90;1.00
75994;DHT22;64680;53.800;9.988;2023-08-20T10:56:45;24.90;1.00
75994;DHT22;64680;53.800;9.988;2023-08-20T10:59:28;24.70;1.00
75994;DHT22;64680;53.800;9.988;2023-08-20T11:01:58;24.70;1.00
75994;DHT22;64680;53.800;9.988;2023-08-20T11:04:25;24.90;1.00
75994;DHT22;64680;53.800;9.988;2023-08-20T11:06:56;25.00;1.00
75994;DHT22;64680;53.800;9.988;2023-08-20T11:09:23;24.60;1.00
75994;DHT22;64680;53.800;9.988;2023-08-20T11:11:50;24.40;1.00
75994;DHT22;64680;53.800;9.988;2023-08-20T11:14:18;24.30;1.00
75994;DHT22;64680;53.800;9.988;2023-08-20T11:16:45;24.00;1.00
75994;DHT22;64680;53.800;9.988;2023-08-20T11:19:11;24.20;1.00
75994;DHT22;64680;53.800;9.988;2023-08-20T11:21:42;24.40;1.00
75994;DHT22;64680;53.800;9.988;2023-08-20T11:24:08;24.70;1.00
75994;DHT22;64680;53.800;9.988;2023-08-20T11:26:35;24.90;1.00
75994;DHT22;64680;53.800;9.988;2023-08-20T11:29:05;25.20;1.00
75994;DHT22;64680;53.800;9.988;2023-08-20T11:31:31;25.40;1.00
75994;DHT22;64680;53.800;9.988;2023-08-20T11:33:57;25.50;1.00
75994;DHT22;64680;53.800;9.988;2023-08-20T11:36:23;25.70;1.00
75994;DHT22;64680;53.800;9.988;2023-08-20T11:38:50;25.70;1.00
75994;DHT22;64680;53.800;9.988;2023-08-20T11:41:18;25.80;1.00
75994;DHT22;64680;53.800;9.988;2023-08-20T11:43:44;25.90;1.00
75994;DHT22;64680;53.800;9.988;2023-08-20T11:46:13;25.90;1.00
75994;DHT22;64680;53.800;9.988;2023-08-20T11:49:05;26.00;1.00
75994;DHT22;64680;53.800;9.988;2023-08-20T11:51:42;26.10;1.00
75994;DHT22;64680;53.800;9.988;2023-08-20T11:54:13;26.00;1.00
75994;DHT22;64680;53.800;9.988;2023-08-20T11:56:46;26.10;1.00
75994;DHT22;64680;53.800;9.988;2023-08-20T11:59:13;26.20;1.00
75994;DHT22;64680;53.800;9.988;2023-08-20T12:01:39;26.20;1.00
75994;DHT22;64680;53.800;9.988;2023-08-20T12:04:09;26.40;1.00
75994;DHT22;64680;53.800;9.988;2023-08-20T12:06:36;26.40;1.00
75994;DHT22;64680;53.800;9.988;2023-08-20T12:09:18;26.50;1.00
75994;DHT22;64680;53.800;9.988;2023-08-20T12:11:54;26.70;1.00
75994;DHT22;64680;53.800;9.988;2023-08-20T12:14:23;26.70;1.00
75994;DHT22;64680;53.800;9.988;2023-08-20T12:16:49;26.90;1.00
75994;DHT22;64680;53.800;9.988;2023-08-20T12:19:16;26.60;1.00
75994;DHT22;64680;53.800;9.988;2023-08-20T12:21:42;26.30;1.00
75994;DHT22;64680;53.800;9.988;2023-08-20T12:24:09;26.50;1.00
75994;DHT22;64680;53.800;9.988;2023-08-20T12:26:38;26.20;1.00
75994;DHT22;64680;53.800;9.988;2023-08-20T12:29:04;26.10;1.00
75994;DHT22;64680;53.800;9.988;2023-08-20T12:31:31;25.90;1.00
75994;DHT22;64680;53.800;9.988;2023-08-20T12:33:57;25.60;1.00
75994;DHT22;64680;53.800;9.988;2023-08-20T12:36:22;25.40;1.00
75994;DHT22;64680;53.800;9.988;2023-08-20T12:38:48;25.30;1.00
75994;DHT22;64680;53.800;9.988;2023-08-20T12:41:14;25.30;1.00
75994;DHT22;64680;53.800;9.988;2023-08-20T12:43:40;25.40;1.00
75994;DHT22;64680;53.800;9.988;2023-08-20T12:46:06;25.30;1.00
75994;DHT22;64680;53.800;9.988;2023-08-20T12:48:31;25.60;1.00
75994;DHT22;64680;53.800;9.988;2023-08-20T12:50:58;25.70;1.00
75994;DHT22;64680;53.800;9.988;2023-08-20T12:53:23;25.60;1.00
75994;DHT22;64680;53.800;9.988;2023-08-20T12:55:49;25.20;1.00
75994;DHT22;64680;53.800;9.988;2023-08-20T12:58:15;24.80;1.00
75994;DHT22;64680;53.800;9.988;2023-08-20T13:00:40;24.70;1.00
75994;DHT22;64680;53.800;9.988;2023-08-20T13:03:06;24.60;1.00
75994;DHT22;64680;53.800;9.988;2023-08-20T13:05:32;24.40;1.00
75994;DHT22;64680;53.800;9.988;2023-08-20T13:07:58;24.50;1.00
75994;DHT22;64680;53.800;9.988;2023-08-20T13:10:24;24.50;1.00
75994;DHT22;64680;53.800;9.988;2023-08-20T13:12:52;24.50;1.00
75994;DHT22;64680;53.800;9.988;2023-08-20T13:15:20;24.70;1.00
75994;DHT22;64680;53.800;9.988;2023-08-20T13:17:47;24.80;1.00
75994;DHT22;64680;53.800;9.988;2023-08-20T13:20:14;24.80;1.00
75994;DHT22;64680;53.800;9.988;2023-08-20T13:22:40;25.10;1.00
75994;DHT22;64680;53.800;9.988;2023-08-20T13:25:06;25.40;1.00
75994;DHT22;64680;53.800;9.988;2023-08-20T13:27:32;25.60;1.00
75994;DHT22;64680;53.800;9.988;2023-08-20T13:29:57;25.40;1.00
75994;DHT22;64680;53.800;9.988;2023-08-20T13:32:23;25.30;1.00
75994;DHT22;64680;53.800;9.988;2023-08-20T13:34:50;25.10;1.00
75994;DHT22;64680;53.800;9.988;2023-08-20T13:37:16;24.80;1.00
75994;DHT22;64680;53.800;9.988;2023-08-20T13:39:41;24.70;1.00
75994;DHT22;64680;53.800;9.988;2023-08-20T13:42:07;24.70;1.00
75994;DHT22;64680;53.800;9.988;2023-08-20T13:44:32;24.50;1.00
75994;DHT22;64680;53.800;9.988;2023-08-20T13:46:59;24.60;1.00
75994;DHT22;64680;53.800;9.988;2023-08-20T13:49:25;24.60;1.00
75994;DHT22;64680;53.800;9.988;2023-08-20T13:51:50;25.00;1.00
75994;DHT22;64680;53.800;9.988;2023-08-20T13:54:16;25.20;1.00
75994;DHT22;64680;53.800;9.988;2023-08-20T13:56:42;25.30;1.00
75994;DHT22;64680;53.800;9.988;2023-08-20T13:59:09;25.30;1.00
75994;DHT22;64680;53.800;9.988;2023-08-20T14:01:35;25.20;1.00
75994;DHT22;64680;53.800;9.988;2023-08-20T14:04:01;25.30;1.00
75994;DHT22;64680;53.800;9.988;2023-08-20T14:06:27;25.20;1.00
75994;DHT22;64680;53.800;9.988;2023-08-20T14:08:53;25.20;1.00
75994;DHT22;64680;53.800;9.988;2023-08-20T14:11:19;25.10;1.00
75994;DHT22;64680;53.800;9.988;2023-08-20T14:13:44;25.10;1.00
75994;DHT22;64680;53.800;9.988;2023-08-20T14:16:10;25.00;1.00
75994;DHT22;64680;53.800;9.988;2023-08-20T14:18:36;25.00;1.00
75994;DHT22;64680;53.800;9.988;2023-08-20T14:21:01;25.00;1.00
75994;DHT22;64680;53.800;9.988;2023-08-20T14:23:28;24.90;1.00
75994;DHT22;64680;53.800;9.988;2023-08-20T14:25:55;24.90;1.00
75994;DHT22;64680;53.800;9.988;2023-08-20T14:28:21;24.60;1.00
75994;DHT22;64680;53.800;9.988;2023-08-20T14:30:46;24.60;1.00
75994;DHT22;64680;53.800;9.988;2023-08-20T14:33:12;24.90;1.00
75994;DHT22;64680;53.800;9.988;2023-08-20T14:35:37;25.00;1.00
75994;DHT22;64680;53.800;9.988;2023-08-20T14:38:03;25.20;1.00
75994;DHT22;64680;53.800;9.988;2023-08-20T14:40:30;25.20;1.00
75994;DHT22;64680;53.800;9.988;2023-08-20T14:42:56;25.20;1.00
75994;DHT22;64680;53.800;9.988;2023-08-20T14:45:21;25.20;1.00
75994;DHT22;64680;53.800;9.988;2023-08-20T14:47:47;25.10;1.00
75994;DHT22;64680;53.800;9.988;2023-08-20T14:50:12;25.10;1.00
75994;DHT22;64680;53.800;9.988;2023-08-20T14:52:38;25.10;1.00
75994;DHT22;64680;53.800;9.988;2023-08-20T14:55:04;25.10;1.00
75994;DHT22;64680;53.800;9.988;2023-08-20T14:57:33;25.00;1.00
75994;DHT22;64680;53.800;9.988;2023-08-20T14:59:59;24.90;1.00
75994;DHT22;64680;53.800;9.988;2023-08-20T15:02:24;24.80;1.00
75994;DHT22;64680;53.800;9.988;2023-08-20T15:04:50;24.90;1.00
75994;DHT22;64680;53.800;9.988;2023-08-20T15:07:15;25.00;1.00
75994;DHT22;64680;53.800;9.988;2023-08-20T15:09:41;25.00;1.00
75994;DHT22;64680;53.800;9.988;2023-08-20T15:12:06;24.80;1.00
75994;DHT22;64680;53.800;9.988;2023-08-20T15:14:33;24.70;1.00
75994;DHT22;64680;53.800;9.988;2023-08-20T15:16:58;24.70;1.00
75994;DHT22;64680;53.800;9.988;2023-08-20T15:19:24;24.80;1.00
75994;DHT22;64680;53.800;9.988;2023-08-20T15:21:49;24.90;1.00
75994;DHT22;64680;53.800;9.988;2023-08-20T15:24:15;24.80;1.00
75994;DHT22;64680;53.800;9.988;2023-08-20T15:26:40;24.80;1.00
75994;DHT22;64680;53.800;9.988;2023-08-20T15:29:07;24.90;1.00
75994;DHT22;64680;53.800;9.988;2023-08-20T15:31:33;24.90;1.00
75994;DHT22;64680;53.800;9.988;2023-08-20T15:33:59;24.90;1.00
75994;DHT22;64680;53.800;9.988;2023-08-20T15:36:24;24.80;1.00
75994;DHT22;64680;53.800;9.988;2023-08-20T15:38:50;24.90;1.00
75994;DHT22;64680;53.800;9.988;2023-08-20T15:41:15;24.90;1.00
75994;DHT22;64680;53.800;9.988;2023-08-20T15:43:41;24.80;1.00
75994;DHT22;64680;53.800;9.988;2023-08-20T15:46:07;24.70;1.00
75994;DHT22;64680;53.800;9.988;2023-08-20T15:48:33;24.50;1.00
75994;DHT22;64680;53.800;9.988;2023-08-20T15:50:58;24.40;1.00